createdAt,value
2022-12-03T00:01:14.540Z,101124.44
2022-12-03T00:04:17.533Z,101118.03
2022-12-03T00:07:20.035Z,101116.19
2022-12-03T00:10:24.276Z,101113.66
2022-12-03T00:13:26.841Z,101112.47
2022-12-03T00:16:29.935Z,101115.06
2022-12-03T00:19:32.549Z,101110.72
2022-12-03T00:22:35.530Z,101110.03
2022-12-03T00:25:38.005Z,101114.09
2022-12-03T00:28:41.173Z,101106.84
2022-12-03T00:31:45.621Z,101104.13
2022-12-03T00:34:49.584Z,101103.62
2022-12-03T00:37:52.157Z,101105.97
2022-12-03T00:40:55.014Z,101105.34
2022-12-03T00:43:57.720Z,101102.00
2022-12-03T00:47:00.742Z,101102.81
2022-12-03T00:50:05.196Z,101109.19
2022-12-03T00:53:08.164Z,101111.84
2022-12-03T00:56:10.746Z,101106.47
2022-12-03T00:59:15.935Z,101110.63
2022-12-03T01:02:18.658Z,101100.31
2022-12-03T01:05:21.634Z,101095.41
2022-12-03T01:08:24.366Z,101111.94
2022-12-03T01:11:39.234Z,101108.56
2022-12-03T01:14:41.893Z,101110.22
2022-12-03T01:17:46.033Z,101113.06
2022-12-03T01:20:48.657Z,101112.34
2022-12-03T01:23:51.501Z,101112.22
2022-12-03T01:26:55.998Z,101120.34
2022-12-03T01:30:00.107Z,101112.44
2022-12-03T01:33:02.751Z,101127.06
2022-12-03T01:36:06.040Z,101128.47
2022-12-03T01:39:09.739Z,101123.53
2022-12-03T01:42:17.477Z,101124.03
2022-12-03T01:45:24.147Z,101124.44
2022-12-03T01:48:28.292Z,101118.66
2022-12-03T01:51:31.226Z,101121.66
2022-12-03T01:54:41.298Z,101115.88
2022-12-03T01:57:50.499Z,101115.25
2022-12-03T02:00:53.590Z,101108.53
2022-12-03T02:03:59.093Z,101114.53
2022-12-03T02:07:32.607Z,101108.16
2022-12-03T02:10:36.402Z,101114.28
2022-12-03T02:13:39.301Z,101114.69
2022-12-03T02:16:42.938Z,101118.56
2022-12-03T02:19:46.783Z,101122.53
2022-12-03T02:23:02.647Z,101126.28
2022-12-03T02:26:05.679Z,101106.97
2022-12-03T02:29:08.367Z,101119.06
2022-12-03T02:32:11.276Z,101113.78
2022-12-03T02:35:16.400Z,101108.94
2022-12-03T02:38:23.218Z,101107.81
2022-12-03T02:41:44.656Z,101124.66
2022-12-03T02:44:47.643Z,101121.91
2022-12-03T02:47:55.565Z,101122.53
2022-12-03T02:51:02.649Z,101123.22
2022-12-03T02:54:05.571Z,101118.97
2022-12-03T02:57:08.531Z,101118.03
2022-12-03T03:00:12.121Z,101119.16
2022-12-03T03:03:18.320Z,101118.03
2022-12-03T03:06:21.870Z,101122.84
2022-12-03T03:09:24.825Z,101110.03
2022-12-03T03:12:27.430Z,101116.31
2022-12-03T03:15:30.360Z,101115.72
2022-12-03T03:18:34.253Z,101115.28
2022-12-03T03:21:37.111Z,101110.22
2022-12-03T03:24:39.893Z,101110.50
2022-12-03T03:27:43.560Z,101113.84
2022-12-03T03:30:48.286Z,101118.56
2022-12-03T03:33:51.863Z,101117.22
2022-12-03T03:36:54.526Z,101123.00
2022-12-03T03:39:58.171Z,101129.16
2022-12-03T03:43:01.348Z,101122.38
2022-12-03T03:46:06.781Z,101123.50
2022-12-03T03:49:10.699Z,101124.81
2022-12-03T03:52:14.192Z,101125.63
2022-12-03T03:55:19.165Z,101135.00
2022-12-03T03:58:22.426Z,101114.28
2022-12-03T04:01:25.391Z,101120.56
2022-12-03T04:04:34.634Z,101121.00
2022-12-03T04:07:37.369Z,101118.75
2022-12-03T04:10:58.803Z,101121.59
2022-12-03T04:14:02.870Z,101123.59
2022-12-03T04:17:05.693Z,101118.75
2022-12-03T04:20:08.618Z,101120.25
2022-12-03T04:23:11.639Z,101120.97
2022-12-03T04:26:33.167Z,101129.25
2022-12-03T04:29:36.065Z,101131.16
2022-12-03T04:32:57.062Z,101138.78
2022-12-03T04:36:00.014Z,101126.69
2022-12-03T04:39:02.720Z,101132.28
2022-12-03T04:42:06.516Z,101134.00
2022-12-03T04:45:09.551Z,101140.59
2022-12-03T04:48:12.564Z,101148.94
2022-12-03T04:51:15.126Z,101147.62
2022-12-03T04:54:18.045Z,101155.34
2022-12-03T04:57:20.586Z,101160.69
2022-12-03T05:00:23.523Z,101156.53
2022-12-03T05:03:26.057Z,101151.84
2022-12-03T05:06:30.988Z,101154.50
2022-12-03T05:09:33.689Z,101148.84
2022-12-03T05:12:37.559Z,101151.56
2022-12-03T05:15:40.113Z,101152.59
2022-12-03T05:18:46.042Z,101134.00
2022-12-03T05:21:48.750Z,101142.13
2022-12-03T05:24:51.854Z,101146.69
2022-12-03T05:27:54.801Z,101151.47
2022-12-03T05:30:57.759Z,101154.22
2022-12-03T05:34:00.351Z,101156.00
2022-12-03T05:37:03.482Z,101164.78
2022-12-03T05:40:06.883Z,101167.91
2022-12-03T05:43:09.765Z,101163.31
2022-12-03T05:46:12.365Z,101162.91
2022-12-03T05:49:15.237Z,101155.00
2022-12-03T05:52:18.502Z,101150.06
2022-12-03T05:55:21.865Z,101144.88
2022-12-03T05:58:24.367Z,101147.72
2022-12-03T06:01:27.255Z,101153.00
2022-12-03T06:04:30.138Z,101148.44
2022-12-03T06:07:32.718Z,101144.47
2022-12-03T06:10:35.696Z,101144.38
2022-12-03T06:13:38.268Z,101137.84
2022-12-03T06:16:41.216Z,101140.88
2022-12-03T06:19:43.953Z,101135.13
2022-12-03T06:22:48.490Z,101124.47
2022-12-03T06:25:51.241Z,101136.94
2022-12-03T06:28:54.195Z,101140.00
2022-12-03T06:31:56.783Z,101152.37
2022-12-03T06:35:01.974Z,101145.16
2022-12-03T06:38:04.615Z,101165.41
2022-12-03T06:41:07.763Z,101172.91
2022-12-03T06:44:11.416Z,101178.81
2022-12-03T06:47:14.450Z,101177.41
2022-12-03T06:50:17.131Z,101168.53
2022-12-03T06:53:20.068Z,101164.19
2022-12-03T06:56:22.815Z,101156.34
2022-12-03T06:59:25.988Z,101154.72
2022-12-03T07:02:28.677Z,101142.91
2022-12-03T07:05:31.963Z,101157.16
2022-12-03T07:08:34.798Z,101162.84
2022-12-03T07:11:41.161Z,101166.91
2022-12-03T07:14:43.750Z,101164.38
2022-12-03T07:17:46.681Z,101166.09
2022-12-03T07:20:52.028Z,101168.53
2022-12-03T07:23:56.661Z,101158.28
2022-12-03T07:27:00.626Z,101165.09
2022-12-03T07:30:06.844Z,101160.00
2022-12-03T07:33:09.621Z,101150.25
2022-12-03T07:36:12.512Z,101155.75
2022-12-03T07:39:15.593Z,101157.19
2022-12-03T07:42:18.519Z,101163.69
2022-12-03T07:45:22.446Z,101177.91
2022-12-03T07:48:26.365Z,101187.03
2022-12-03T07:51:32.190Z,101178.53
2022-12-03T07:54:36.516Z,101184.78
2022-12-03T07:57:39.775Z,101175.87
2022-12-03T08:00:42.656Z,101181.84
2022-12-03T08:03:45.663Z,101170.28
2022-12-03T08:06:49.082Z,101169.88
2022-12-03T08:09:52.061Z,101174.94
2022-12-03T08:12:57.226Z,101172.31
2022-12-03T08:16:11.851Z,101183.09
2022-12-03T08:19:17.538Z,101178.81
2022-12-03T08:22:20.666Z,101177.69
2022-12-03T08:25:26.296Z,101177.84
2022-12-03T08:28:29.334Z,101169.31
2022-12-03T08:31:33.785Z,101172.66
2022-12-03T08:34:44.795Z,101175.81
2022-12-03T08:37:48.522Z,101175.50
2022-12-03T08:40:53.029Z,101179.34
2022-12-03T08:43:55.661Z,101180.88
2022-12-03T08:47:10.462Z,101183.38
2022-12-03T08:50:30.902Z,101177.06
2022-12-03T08:53:37.824Z,101171.50
2022-12-03T08:56:42.004Z,101170.84
2022-12-03T08:59:45.826Z,101163.28
2022-12-03T09:02:54.657Z,101168.87
2022-12-03T09:05:57.733Z,101162.03
2022-12-03T09:09:06.344Z,101153.69
2022-12-03T09:12:09.832Z,101156.00
2022-12-03T09:15:12.456Z,101154.06
2022-12-03T09:18:15.339Z,101151.41
2022-12-03T09:21:17.933Z,101145.00
2022-12-03T09:24:21.232Z,101154.81
2022-12-03T09:27:24.011Z,101169.03
2022-12-03T09:30:27.029Z,101177.81
2022-12-03T09:33:31.282Z,101158.16
2022-12-03T09:36:34.433Z,101160.75
2022-12-03T09:39:37.289Z,101169.03
2022-12-03T09:42:40.531Z,101163.06
2022-12-03T09:45:45.880Z,101155.63
2022-12-03T09:48:48.960Z,101150.75
2022-12-03T09:51:52.187Z,101148.31
2022-12-03T09:54:55.399Z,101145.37
2022-12-03T09:57:58.589Z,101142.50
2022-12-03T10:01:01.590Z,101142.78
2022-12-03T10:04:04.831Z,101135.09
2022-12-03T10:07:09.693Z,101137.16
2022-12-03T10:10:24.815Z,101142.31
2022-12-03T10:13:30.931Z,101129.22
2022-12-03T10:16:36.180Z,101128.66
2022-12-03T10:19:39.803Z,101118.63
2022-12-03T10:22:42.786Z,101122.56
2022-12-03T10:25:54.317Z,101117.16
2022-12-03T10:28:57.224Z,101109.09
2022-12-03T10:32:01.641Z,101107.63
2022-12-03T10:35:21.605Z,101106.41
2022-12-03T10:38:24.249Z,101098.81
2022-12-03T10:41:28.923Z,101103.84
2022-12-03T10:44:34.142Z,101091.53
2022-12-03T10:47:37.283Z,101091.72
2022-12-03T10:51:03.436Z,101092.00
2022-12-03T10:54:22.877Z,101086.03
2022-12-03T10:57:25.757Z,101095.44
2022-12-03T11:00:28.753Z,101092.69
2022-12-03T11:03:35.255Z,101091.34
2022-12-03T11:06:38.096Z,101087.16
2022-12-03T11:09:44.129Z,101084.13
2022-12-03T11:13:25.595Z,101083.16
2022-12-03T11:16:40.276Z,101079.97
2022-12-03T11:19:46.579Z,101084.84
2022-12-03T11:22:53.797Z,101073.38
2022-12-03T11:25:57.774Z,101060.91
2022-12-03T11:29:00.519Z,101063.19
2022-12-03T11:32:03.521Z,101066.25
2022-12-03T11:35:19.496Z,101066.28
2022-12-03T11:38:37.828Z,101060.44
2022-12-03T11:41:40.507Z,101058.47
2022-12-03T11:44:43.654Z,101060.91
2022-12-03T11:47:59.838Z,101061.75
2022-12-03T11:51:03.113Z,101052.81
2022-12-03T11:54:05.786Z,101054.78
2022-12-03T11:57:37.468Z,101049.41
2022-12-03T12:00:51.969Z,101046.16
2022-12-03T12:03:54.907Z,101042.28
2022-12-03T12:06:57.600Z,101040.66
2022-12-03T12:10:00.553Z,101030.47
2022-12-03T12:13:03.386Z,101027.88
2022-12-03T12:16:08.067Z,101026.72
2022-12-03T12:19:29.672Z,101030.94
2022-12-03T12:22:32.729Z,101022.69
2022-12-03T12:25:40.870Z,101025.28
2022-12-03T12:28:46.999Z,101021.06
2022-12-03T12:31:53.915Z,101020.75
2022-12-03T12:35:23.324Z,101014.56
2022-12-03T12:38:28.287Z,101007.78
2022-12-03T12:41:31.199Z,101011.19
2022-12-03T12:44:33.732Z,101001.16
2022-12-03T12:47:36.899Z,100993.37
2022-12-03T12:50:43.897Z,101001.16
2022-12-03T12:53:48.624Z,101006.97
2022-12-03T12:56:51.361Z,100996.13
2022-12-03T12:59:54.519Z,100990.13
2022-12-03T13:03:03.304Z,100990.44
2022-12-03T13:06:06.757Z,100989.00
2022-12-03T13:09:15.232Z,100978.12
2022-12-03T13:12:22.268Z,100984.59
2022-12-03T13:15:52.241Z,100985.56
2022-12-03T13:18:57.277Z,100985.87
2022-12-03T13:22:15.799Z,100994.97
2022-12-03T13:26:10.736Z,100982.66
2022-12-03T13:29:19.755Z,100999.19
2022-12-03T13:32:31.067Z,100995.28
2022-12-03T13:35:36.443Z,100995.66
2022-12-03T13:38:39.561Z,100995.47
2022-12-03T13:42:01.815Z,100989.47
2022-12-03T13:45:16.613Z,100999.34
2022-12-03T13:48:23.335Z,101003.22
2022-12-03T13:51:29.964Z,101007.59
2022-12-03T13:54:32.751Z,101006.66
2022-12-03T13:57:35.771Z,101009.06
2022-12-03T14:00:38.513Z,101008.75
2022-12-03T14:03:41.557Z,101004.38
2022-12-03T14:06:44.123Z,101000.31
2022-12-03T14:09:47.123Z,100972.13
2022-12-03T14:12:51.017Z,100971.16
2022-12-03T14:15:54.176Z,100971.50
2022-12-03T14:18:56.814Z,100961.28
2022-12-03T14:22:00.421Z,100963.69
2022-12-03T14:25:03.051Z,100964.03
2022-12-03T14:28:08.845Z,100968.09
2022-12-03T14:31:11.586Z,100978.75
2022-12-03T14:34:14.705Z,100985.91
2022-12-03T14:37:17.839Z,100993.03
2022-12-03T14:40:22.602Z,100994.19
2022-12-03T14:43:25.413Z,100993.22
2022-12-03T14:46:28.394Z,100995.00
2022-12-03T14:49:31.289Z,100995.81
2022-12-03T14:52:35.019Z,100988.84
2022-12-03T14:55:38.422Z,100995.66
2022-12-03T14:58:41.292Z,100995.66
2022-12-03T15:01:44.222Z,100997.09
2022-12-03T15:04:47.144Z,101002.09
2022-12-03T15:07:49.734Z,100989.63
2022-12-03T15:10:52.702Z,100999.47
2022-12-03T15:13:55.191Z,100999.34
2022-12-03T15:16:58.190Z,100999.50
2022-12-03T15:20:00.881Z,100991.75
2022-12-03T15:23:03.774Z,101008.59
2022-12-03T15:26:06.614Z,101001.78
2022-12-03T15:29:09.538Z,101006.81
2022-12-03T15:32:14.530Z,101008.75
2022-12-03T15:35:18.781Z,101008.12
2022-12-03T15:38:21.403Z,101018.97
2022-12-03T15:41:29.839Z,101013.47
2022-12-03T15:44:32.805Z,101009.87
2022-12-03T15:47:38.116Z,101005.69
2022-12-03T15:50:41.435Z,101012.50
2022-12-03T15:53:44.519Z,101006.31
2022-12-03T15:56:47.189Z,100990.31
2022-12-03T15:59:50.415Z,100994.81
2022-12-03T16:02:54.759Z,101000.19
2022-12-03T16:05:58.194Z,101004.06
2022-12-03T16:09:00.812Z,100995.66
2022-12-03T16:12:03.857Z,101003.75
2022-12-03T16:15:06.849Z,101011.81
2022-12-03T16:18:10.154Z,101008.56
2022-12-03T16:21:12.757Z,101003.37
2022-12-03T16:24:16.869Z,101000.31
2022-12-03T16:27:25.479Z,101006.28
2022-12-03T16:30:30.329Z,100996.91
2022-12-03T16:33:32.951Z,100995.28
2022-12-03T16:36:38.368Z,101005.97
2022-12-03T16:39:42.509Z,100993.66
2022-12-03T16:42:46.195Z,100989.25
2022-12-03T16:46:02.988Z,100984.69
2022-12-03T16:49:07.268Z,100999.59
2022-12-03T16:52:10.720Z,101001.97
2022-12-03T16:55:14.440Z,100995.22
2022-12-03T16:58:21.342Z,100993.94
2022-12-03T17:01:24.808Z,100991.69
2022-12-03T17:04:30.093Z,100976.44
2022-12-03T17:07:33.153Z,100980.97
2022-12-03T17:10:36.001Z,100974.28
2022-12-03T17:13:38.941Z,100980.63
2022-12-03T17:16:41.442Z,100987.22
2022-12-03T17:19:44.484Z,100978.31
2022-12-03T17:22:47.942Z,100981.44
2022-12-03T17:25:51.225Z,100981.59
2022-12-03T17:28:53.923Z,100970.25
2022-12-03T17:31:57.206Z,100976.09
2022-12-03T17:35:00.347Z,100973.19
2022-12-03T17:38:03.579Z,100976.72
2022-12-03T17:41:07.580Z,100979.50
2022-12-03T17:44:13.900Z,100974.00
2022-12-03T17:47:19.316Z,100969.00
2022-12-03T17:50:22.339Z,100979.72
2022-12-03T17:53:25.751Z,100983.59
2022-12-03T17:56:28.783Z,100978.75
2022-12-03T17:59:31.666Z,100984.44
2022-12-03T18:02:34.525Z,100979.72
2022-12-03T18:05:37.561Z,100981.53
2022-12-03T18:08:40.099Z,100985.06
2022-12-03T18:11:43.404Z,100980.88
2022-12-03T18:14:46.277Z,100983.94
2022-12-03T18:17:49.356Z,100983.31
2022-12-03T18:20:53.559Z,100994.16
2022-12-03T18:24:00.395Z,100992.53
2022-12-03T18:27:03.242Z,100979.09
2022-12-03T18:30:07.551Z,100979.56
2022-12-03T18:33:10.244Z,100974.72
2022-12-03T18:36:22.402Z,100973.59
2022-12-03T18:39:34.917Z,100965.81
2022-12-03T18:42:38.228Z,100983.31
2022-12-03T18:45:41.114Z,100986.72
2022-12-03T18:48:48.748Z,100978.94
2022-12-03T18:51:57.329Z,100974.06
2022-12-03T18:55:02.882Z,100974.22
2022-12-03T18:58:05.597Z,100973.75
2022-12-03T19:01:16.577Z,100979.59
2022-12-03T19:04:19.881Z,100982.34
2022-12-03T19:07:23.377Z,100990.44
2022-12-03T19:10:26.597Z,100988.16
2022-12-03T19:13:30.983Z,100994.97
2022-12-03T19:16:36.289Z,100994.19
2022-12-03T19:19:39.776Z,100995.66
2022-12-03T19:22:43.362Z,101003.41
2022-12-03T19:26:01.255Z,100993.22
2022-12-03T19:29:04.828Z,101000.81
2022-12-03T19:32:11.229Z,100997.91
2022-12-03T19:35:13.831Z,100998.72
2022-12-03T19:38:18.417Z,101012.16
2022-12-03T19:41:21.508Z,101007.31
2022-12-03T19:44:24.732Z,101010.06
2022-12-03T19:47:27.906Z,101016.53
2022-12-03T19:50:31.226Z,101011.97
2022-12-03T19:53:37.318Z,101017.50
2022-12-03T19:56:40.820Z,101031.91
2022-12-03T19:59:43.807Z,101032.09
2022-12-03T20:02:49.421Z,101031.25
2022-12-03T20:05:52.909Z,101038.25
2022-12-03T20:08:59.721Z,101042.28
2022-12-03T20:12:03.222Z,101041.00
2022-12-03T20:15:06.637Z,101032.25
2022-12-03T20:18:11.024Z,101036.59
2022-12-03T20:21:16.986Z,101029.81
2022-12-03T20:24:20.449Z,101024.97
2022-12-03T20:27:24.961Z,101023.81
2022-12-03T20:30:28.336Z,101018.97
2022-12-03T20:33:31.367Z,101028.34
2022-12-03T20:36:34.945Z,101023.66
2022-12-03T20:39:39.467Z,101025.44
2022-12-03T20:42:48.833Z,101030.78
2022-12-03T20:45:52.199Z,101043.41
2022-12-03T20:48:56.147Z,101036.44
2022-12-03T20:52:02.857Z,101045.22
2022-12-03T20:55:09.284Z,101037.41
2022-12-03T20:58:12.538Z,101041.00
2022-12-03T21:01:21.146Z,101043.25
2022-12-03T21:04:25.723Z,101038.06
2022-12-03T21:07:29.341Z,101039.03
2022-12-03T21:10:45.189Z,101038.38
2022-12-03T21:13:49.931Z,101031.25
2022-12-03T21:17:11.971Z,101008.72
2022-12-03T21:20:20.942Z,101013.59
2022-12-03T21:23:24.678Z,101019.09
2022-12-03T21:26:27.902Z,101013.75
2022-12-03T21:29:30.785Z,100994.94
2022-12-03T21:32:34.483Z,101000.44
2022-12-03T21:35:37.967Z,101011.62
2022-12-03T21:38:42.648Z,101021.69
2022-12-03T21:42:25.950Z,101020.06
2022-12-03T21:45:11.584Z,101031.41
2022-12-03T21:48:19.237Z,101025.56
2022-12-03T21:51:22.730Z,101034.63
2022-12-03T21:54:25.785Z,101024.91
2022-12-03T21:57:28.945Z,101034.31
2022-12-03T22:00:31.969Z,101032.53
2022-12-03T22:03:34.789Z,101036.75
2022-12-03T22:06:37.356Z,101042.75
2022-12-03T22:09:40.242Z,101037.56
2022-12-03T22:12:43.814Z,101028.81
2022-12-03T22:15:46.797Z,101035.97
2022-12-03T22:18:49.948Z,101040.66
2022-12-03T22:21:53.832Z,101026.41
2022-12-03T22:24:57.445Z,101031.28
2022-12-03T22:28:00.294Z,101026.87
2022-12-03T22:31:10.194Z,101029.63
2022-12-03T22:34:13.386Z,101028.69
2022-12-03T22:37:17.071Z,101021.03
2022-12-03T22:40:19.861Z,101026.06
2022-12-03T22:43:22.708Z,101013.59
2022-12-03T22:46:25.634Z,101002.41
2022-12-03T22:49:28.461Z,101010.53
2022-12-03T22:52:31.376Z,101011.19
2022-12-03T22:55:33.997Z,101007.94
2022-12-03T22:58:38.862Z,100996.13
2022-12-03T23:01:42.126Z,100986.88
2022-12-03T23:04:44.996Z,100987.38
2022-12-03T23:07:48.783Z,100996.94
2022-12-03T23:10:52.960Z,100995.00
2022-12-03T23:13:55.910Z,100994.34
2022-12-03T23:16:58.750Z,100995.63
2022-12-03T23:20:01.829Z,100993.53
2022-12-03T23:23:04.721Z,100983.81
2022-12-03T23:26:10.807Z,100980.91
2022-12-03T23:29:13.912Z,100978.59
2022-12-03T23:32:16.555Z,100968.91
2022-12-03T23:35:19.467Z,100969.75
2022-12-03T23:38:22.215Z,100969.37
2022-12-03T23:41:26.139Z,100971.81
2022-12-03T23:44:28.749Z,100964.38
2022-12-03T23:47:32.709Z,100968.91
2022-12-03T23:50:38.720Z,100966.97
2022-12-03T23:53:41.666Z,100959.50
2022-12-03T23:56:44.381Z,100964.22
2022-12-03T23:59:47.235Z,100959.84
